Time;durP1;ratioP1;P1;durP2;ratioP2;P2;SDS_P1;SDS_P2;PMS_P1;PMS_P2;Temp;Humidity;BMP_temperature;BMP_pressure;BME280_temperature;BME280_humidity;BME280_pressure;Samples;Min_cycle;Max_cycle;Signal;HPM_P1;HPM_P2
2022/03/14 00:01:36;;;;;;;;;2.50;2.00;;;;;9.94;68.80;101594.78;5050807;28;46143;-67
2022/03/14 00:04:02;;;;;;;;;3.00;3.00;;;;;9.99;68.65;101599.84;5030054;28;45251;-67
2022/03/14 00:06:28;;;;;;;;;3.00;1.75;;;;;10.00;68.67;101599.78;5052833;28;45829;-67
2022/03/14 00:08:55;;;;;;;;;3.25;2.00;;;;;10.02;68.24;101604.97;5052240;28;45430;-66
2022/03/14 00:11:23;;;;;;;;;3.75;2.00;;;;;10.02;68.15;101604.97;5034486;28;47061;-64
2022/03/14 00:13:50;;;;;;;;;3.75;2.25;;;;;10.05;68.19;101607.50;5050055;28;45418;-66
2022/03/14 00:16:30;;;;;;;;;4.00;2.00;;;;;10.09;67.95;101606.41;5050542;28;45342;-67
2022/03/14 00:18:57;;;;;;;;;2.00;2.00;;;;;10.07;67.92;101609.13;5034304;28;45403;-63
2022/03/14 00:21:24;;;;;;;;;3.00;2.00;;;;;10.08;67.98;101617.88;5049390;28;45403;-66
2022/03/14 00:23:54;;;;;;;;;2.25;2.00;;;;;10.10;67.67;101626.56;5051936;28;45777;-66
2022/03/14 00:26:22;;;;;;;;;2.25;1.75;;;;;10.11;67.72;101638.81;5050406;28;45284;-69
2022/03/14 00:28:48;;;;;;;;;4.00;3.00;;;;;10.12;67.74;101640.53;5031914;28;45470;-71
2022/03/14 00:31:14;;;;;;;;;1.50;1.00;;;;;10.14;67.64;101648.34;5051521;28;45454;-67
2022/03/14 00:33:40;;;;;;;;;3.25;1.50;;;;;10.13;67.51;101659.81;5042621;28;45310;-68
2022/03/14 00:36:08;;;;;;;;;3.25;2.00;;;;;10.10;67.56;101663.41;5041929;28;45369;-76
2022/03/14 00:38:34;;;;;;;;;3.00;2.00;;;;;10.10;67.41;101673.94;5042901;28;45511;-69
2022/03/14 00:40:59;;;;;;;;;2.00;2.00;;;;;10.08;67.38;101684.53;5043470;28;45604;-69
2022/03/14 00:43:27;;;;;;;;;2.50;2.00;;;;;10.09;67.32;101677.50;5039408;28;45553;-71
2022/03/14 00:45:52;;;;;;;;;3.75;1.25;;;;;10.15;67.28;101679.03;5041530;28;45349;-72
2022/03/14 00:48:18;;;;;;;;;2.75;2.00;;;;;10.16;67.63;101686.84;5041157;28;45291;-71
2022/03/14 00:50:43;;;;;;;;;2.50;2.25;;;;;10.21;67.42;101697.22;5043650;28;45899;-68
2022/03/14 00:53:09;;;;;;;;;10.75;5.50;;;;;10.21;67.20;101703.31;5053860;28;45328;-77
2022/03/14 00:55:34;;;;;;;;;7.00;4.75;;;;;10.21;67.36;101713.84;5041478;28;45388;-68
2022/03/14 00:58:00;;;;;;;;;3.00;1.75;;;;;10.20;67.15;101712.16;5041195;28;45603;-76
2022/03/14 01:00:26;;;;;;;;;3.25;2.50;;;;;10.21;66.83;101715.63;5039743;28;46597;-66
2022/03/14 01:02:52;;;;;;;;;2.00;1.75;;;;;10.23;66.63;101716.44;5037850;28;45301;-69
2022/03/14 01:05:18;;;;;;;;;3.75;3.50;;;;;10.20;66.81;101733.22;5055034;28;45318;-65
2022/03/14 01:07:43;;;;;;;;;3.25;2.00;;;;;10.19;67.26;101726.25;5040710;28;45332;-64
2022/03/14 01:10:09;;;;;;;;;4.50;1.25;;;;;10.18;67.06;101723.66;5041018;28;45387;-66
2022/03/14 01:12:35;;;;;;;;;2.75;1.00;;;;;10.16;66.92;101728.97;5046045;28;45384;-65
2022/03/14 01:15:01;;;;;;;;;3.00;1.25;;;;;10.14;66.81;101733.47;5050047;28;45514;-65
2022/03/14 01:17:27;;;;;;;;;4.50;1.50;;;;;10.15;67.06;101737.81;5052184;28;45364;-67
2022/03/14 01:19:53;;;;;;;;;3.00;2.50;;;;;10.16;66.62;101746.56;5046513;28;46459;-65
2022/03/14 01:22:18;;;;;;;;;3.75;1.75;;;;;10.16;67.12;101750.03;5051750;28;45909;-64
2022/03/14 01:24:44;;;;;;;;;2.75;2.00;;;;;10.17;67.35;101758.78;5047977;28;45471;-66
2022/03/14 01:27:10;;;;;;;;;2.50;1.75;;;;;10.20;66.86;101763.97;5040213;28;45435;-68
2022/03/14 01:29:36;;;;;;;;;2.75;1.50;;;;;10.19;67.03;101764.84;5039606;28;46199;-67
2022/03/14 01:32:05;;;;;;;;;2.25;1.00;;;;;10.17;66.86;101762.28;5045058;28;45462;-67
2022/03/14 01:34:31;;;;;;;;;3.75;2.00;;;;;10.17;66.81;101767.56;5040938;28;45601;-67
2022/03/14 01:36:57;;;;;;;;;2.50;1.00;;;;;10.20;66.73;101766.59;5043718;28;45353;-67
2022/03/14 01:39:23;;;;;;;;;1.75;1.75;;;;;10.20;67.21;101774.50;5056724;28;45455;-67
2022/03/14 01:41:49;;;;;;;;;3.50;1.75;;;;;10.21;66.73;101779.69;5057541;28;45406;-67
2022/03/14 01:44:14;;;;;;;;;2.00;2.00;;;;;10.22;66.55;101772.63;5040128;28;45538;-66
2022/03/14 01:46:40;;;;;;;;;3.00;0.25;;;;;10.23;66.94;101788.41;5053409;28;45356;-67
2022/03/14 01:49:05;;;;;;;;;2.00;1.00;;;;;10.28;67.05;101785.59;5050905;28;45963;-67
2022/03/14 01:51:33;;;;;;;;;1.25;1.00;;;;;10.30;67.13;101786.38;5053668;28;45835;-67
2022/03/14 01:53:58;;;;;;;;;2.75;1.50;;;;;10.32;66.60;101788.03;5043524;28;45328;-67
2022/03/14 01:56:25;;;;;;;;;2.00;1.00;;;;;10.33;66.36;101780.97;5053372;28;45277;-67
2022/03/14 01:58:53;;;;;;;;;2.50;0.75;;;;;10.37;66.78;101787.00;5049734;28;45343;-67
2022/03/14 02:01:20;;;;;;;;;2.00;1.00;;;;;10.35;66.66;101792.31;5055843;28;45529;-67
2022/03/14 02:03:49;;;;;;;;;2.00;1.00;;;;;10.33;66.32;101796.78;5045038;28;45417;-67
2022/03/14 02:06:14;;;;;;;;;2.50;1.00;;;;;10.31;66.68;101793.34;5046929;28;45638;-67
2022/03/14 02:08:40;;;;;;;;;3.00;0.00;;;;;10.29;66.62;101795.19;5048557;28;45432;-67
2022/03/14 02:11:05;;;;;;;;;2.00;2.00;;;;;10.28;66.17;101794.34;5048791;28;45348;-67
2022/03/14 02:13:31;;;;;;;;;2.25;1.25;;;;;10.24;66.60;101791.88;5048550;28;45423;-67
2022/03/14 02:15:57;;;;;;;;;4.25;2.00;;;;;10.20;66.75;101795.56;5051991;28;45538;-67
2022/03/14 02:18:22;;;;;;;;;2.00;2.00;;;;;10.17;66.57;101795.66;5049689;28;45424;-67
2022/03/14 02:20:48;;;;;;;;;2.50;1.25;;;;;10.10;66.07;101797.69;5054822;28;45316;-67
2022/03/14 02:23:14;;;;;;;;;2.00;1.00;;;;;10.07;66.43;101803.94;5041860;28;45498;-67
2022/03/14 02:25:50;;;;;;;;;1.00;1.00;;;;;10.04;66.61;101797.94;5050464;28;45450;-67
2022/03/14 02:28:17;;;;;;;;;1.50;0.50;;;;;10.00;66.45;101809.50;5061751;28;45423;-67
2022/03/14 02:30:42;;;;;;;;;2.25;1.00;;;;;9.98;66.52;101801.66;5063108;28;45388;-67
2022/03/14 02:33:11;;;;;;;;;3.50;1.00;;;;;9.96;66.64;101795.63;5044793;28;45324;-67
2022/03/14 02:35:37;;;;;;;;;2.50;1.25;;;;;9.94;67.28;101799.22;5059854;28;45474;-67
2022/03/14 02:38:03;;;;;;;;;1.25;1.25;;;;;9.88;67.15;101804.75;5049769;28;45387;-67
2022/03/14 02:40:28;;;;;;;;;6.25;1.25;;;;;9.84;67.26;101803.13;5040253;28;45340;-67
2022/03/14 02:42:54;;;;;;;;;1.75;1.75;;;;;9.82;67.07;101810.22;5034131;28;45310;-67
2022/03/14 02:45:19;;;;;;;;;2.00;1.00;;;;;9.79;66.99;101808.56;5061012;28;45317;-67
2022/03/14 02:47:45;;;;;;;;;1.00;1.00;;;;;9.76;66.90;101814.81;5069284;28;46100;-67
2022/03/14 02:50:10;;;;;;;;;1.50;0.00;;;;;9.72;67.16;101822.91;5061752;28;45348;-67
2022/03/14 02:52:36;;;;;;;;;2.00;2.00;;;;;9.71;67.30;101829.03;5068858;28;45511;-67
2022/03/14 02:55:02;;;;;;;;;2.50;1.00;;;;;9.69;67.25;101823.84;5062887;28;45552;-67
2022/03/14 02:57:28;;;;;;;;;1.50;1.00;;;;;9.65;67.13;101832.78;5062305;28;45983;-67
2022/03/14 02:59:56;;;;;;;;;2.00;1.00;;;;;9.64;67.82;101841.59;5058914;28;45293;-68
2022/03/14 03:02:24;;;;;;;;;4.75;1.00;;;;;9.62;67.49;101843.41;5054750;28;45348;-67
2022/03/14 03:04:50;;;;;;;;;5.50;2.50;;;;;9.60;67.94;101850.50;5051239;28;45565;-68
2022/03/14 03:07:18;;;;;;;;;9.25;3.00;;;;;9.58;67.58;101864.66;5061595;28;46236;-67
2022/03/14 03:09:44;;;;;;;;;3.50;1.00;;;;;9.55;67.64;101860.34;5062455;28;45246;-68
2022/03/14 03:12:14;;;;;;;;;2.25;0.00;;;;;9.51;67.68;101866.63;5062733;28;45353;-68
2022/03/14 03:14:40;;;;;;;;;8.50;2.00;;;;;9.47;68.01;101878.16;5041477;28;45311;-67
2022/03/14 03:17:06;;;;;;;;;4.00;0.75;;;;;9.49;68.16;101886.88;5055527;28;46163;-67
2022/03/14 03:19:32;;;;;;;;;2.00;1.25;;;;;9.48;68.44;101885.19;5074075;28;45278;-67
2022/03/14 03:21:58;;;;;;;;;4.00;1.75;;;;;9.48;67.98;101893.91;5067616;28;45535;-67
2022/03/14 03:24:24;;;;;;;;;5.00;1.00;;;;;9.46;68.60;101905.38;5059610;28;45181;-67
2022/03/14 03:26:49;;;;;;;;;5.50;1.00;;;;;9.46;68.62;101914.13;5064936;28;46142;-69
2022/03/14 03:29:15;;;;;;;;;3.75;1.00;;;;;9.45;68.27;101917.69;5058433;28;45210;-67
2022/03/14 03:31:40;;;;;;;;;5.50;2.00;;;;;9.46;68.36;101915.91;5062427;28;45306;-66
2022/03/14 03:34:06;;;;;;;;;2.25;2.25;;;;;9.44;68.56;101923.84;5058981;28;45265;-67
2022/03/14 03:36:32;;;;;;;;;5.75;1.00;;;;;9.44;68.75;101917.75;5062368;28;45874;-67
2022/03/14 03:38:58;;;;;;;;;3.25;1.25;;;;;9.45;68.47;101927.34;5057547;28;45485;-67
2022/03/14 03:41:24;;;;;;;;;5.50;2.75;;;;;9.43;68.48;101916.03;5062120;28;45471;-67
2022/03/14 03:43:50;;;;;;;;;7.00;1.00;;;;;9.40;69.05;101924.91;5062375;28;45494;-67
2022/03/14 03:46:15;;;;;;;;;2.50;1.50;;;;;9.41;68.56;101931.88;5062055;28;46086;-67
2022/03/14 03:48:41;;;;;;;;;3.00;1.50;;;;;9.41;68.75;101941.53;5061698;28;45498;-67
2022/03/14 03:51:06;;;;;;;;;3.25;2.75;;;;;9.39;68.55;101941.56;5062250;28;45387;-67
2022/03/14 03:53:32;;;;;;;;;1.00;1.00;;;;;9.40;68.99;101956.44;5057906;28;45636;-67
2022/03/14 03:55:57;;;;;;;;;4.50;2.75;;;;;9.37;68.61;101946.03;5060181;28;45285;-67
2022/03/14 03:58:23;;;;;;;;;5.50;1.75;;;;;9.34;68.66;101946.13;5062091;28;45285;-67
2022/03/14 04:00:50;;;;;;;;;4.75;1.00;;;;;9.31;68.87;101954.13;5051636;28;45403;-67
2022/03/14 04:03:19;;;;;;;;;6.25;3.00;;;;;9.30;68.90;101956.81;5057582;28;45183;-67
2022/03/14 04:05:45;;;;;;;;;6.75;2.50;;;;;9.29;69.18;101958.56;5055945;28;46358;-67
2022/03/14 04:08:10;;;;;;;;;3.00;1.00;;;;;9.28;68.94;101970.00;5061963;28;45351;-67
2022/03/14 04:10:37;;;;;;;;;1.00;1.00;;;;;9.27;68.97;101980.59;5059534;28;45304;-67
2022/03/14 04:13:03;;;;;;;;;6.75;2.50;;;;;9.25;69.14;101977.16;5058487;28;45608;-67
2022/03/14 04:15:30;;;;;;;;;3.25;1.50;;;;;9.21;69.06;101974.63;5061776;28;45508;-67
2022/03/14 04:17:57;;;;;;;;;2.25;2.00;;;;;9.21;69.18;101981.63;5061770;28;45248;-67
2022/03/14 04:20:23;;;;;;;;;3.00;1.00;;;;;9.21;69.34;101982.50;5061620;28;45337;-66
2022/03/14 04:22:50;;;;;;;;;5.25;2.25;;;;;9.20;68.91;101990.44;5066957;28;45483;-67
2022/03/14 04:25:15;;;;;;;;;4.00;2.00;;;;;9.18;68.76;101997.53;5056543;28;45406;-67
2022/03/14 04:27:41;;;;;;;;;3.00;1.75;;;;;9.18;69.08;101992.28;5058493;28;45384;-67
2022/03/14 04:30:07;;;;;;;;;5.00;1.25;;;;;9.19;68.87;102000.09;5061633;28;45448;-67
2022/03/14 04:32:33;;;;;;;;;7.25;2.25;;;;;9.19;69.13;102001.88;5061354;28;45242;-67
2022/03/14 04:34:58;;;;;;;;;3.00;2.00;;;;;9.20;68.84;102001.81;5058670;28;45674;-67
2022/03/14 04:37:24;;;;;;;;;2.00;1.00;;;;;9.17;68.75;102004.56;5061579;28;45324;-67
2022/03/14 04:39:50;;;;;;;;;0.25;0.00;;;;;9.15;69.08;102003.72;5056096;28;45282;-67
2022/03/14 04:42:16;;;;;;;;;3.50;2.50;;;;;9.15;69.27;102011.63;5061528;28;45383;-67
2022/03/14 04:44:42;;;;;;;;;2.50;2.50;;;;;9.16;68.86;102017.72;5061241;28;45472;-67
2022/03/14 04:47:07;;;;;;;;;3.50;1.00;;;;;9.16;68.75;102038.75;5061089;28;45307;-67
2022/03/14 04:49:34;;;;;;;;;6.50;3.25;;;;;9.15;69.06;102037.03;5061029;28;45729;-67
2022/03/14 04:51:59;;;;;;;;;3.00;2.75;;;;;9.13;68.79;102034.47;5051941;28;45395;-67
2022/03/14 04:54:25;;;;;;;;;8.50;3.00;;;;;9.10;68.79;102039.84;5057340;28;46102;-67
2022/03/14 04:56:51;;;;;;;;;3.75;2.00;;;;;9.10;68.63;102042.47;5058164;28;45382;-67
2022/03/14 04:59:16;;;;;;;;;3.50;1.25;;;;;9.10;69.03;102055.63;5057189;28;45324;-67
2022/03/14 05:01:43;;;;;;;;;5.00;2.75;;;;;9.08;68.92;102049.53;5045100;28;45233;-67
2022/03/14 05:04:09;;;;;;;;;5.00;2.00;;;;;9.06;68.51;102053.13;5045399;28;46184;-67
2022/03/14 05:06:34;;;;;;;;;1.00;0.75;;;;;9.05;68.78;102048.78;5060882;28;45794;-67
2022/03/14 05:09:01;;;;;;;;;5.50;3.00;;;;;9.03;68.81;102054.09;5056508;28;45686;-67
2022/03/14 05:11:27;;;;;;;;;6.50;3.00;;;;;9.02;68.59;102057.63;5059248;28;45564;-67
2022/03/14 05:13:52;;;;;;;;;2.00;2.00;;;;;9.03;68.47;102055.84;5058413;28;45543;-67
2022/03/14 05:16:19;;;;;;;;;2.75;2.00;;;;;9.02;68.60;102057.63;5060745;28;45332;-67
2022/03/14 05:18:44;;;;;;;;;7.75;3.00;;;;;9.00;68.66;102063.81;5059139;28;45394;-66
2022/03/14 05:21:10;;;;;;;;;4.00;2.50;;;;;8.99;68.85;102077.88;5061303;28;45312;-67
2022/03/14 05:23:36;;;;;;;;;2.00;1.75;;;;;8.96;68.51;102078.84;5063700;28;45956;-67
2022/03/14 05:26:02;;;;;;;;;3.75;3.00;;;;;8.92;68.90;102095.59;5059757;28;45326;-67
2022/03/14 05:28:27;;;;;;;;;3.00;3.00;;;;;8.86;68.86;102085.28;5034024;28;45571;-67
2022/03/14 05:30:54;;;;;;;;;6.75;3.00;;;;;8.80;68.53;102086.34;5059094;28;45420;-67
2022/03/14 05:33:20;;;;;;;;;9.25;4.00;;;;;8.75;68.61;102100.50;5058804;28;45513;-67
2022/03/14 05:35:46;;;;;;;;;3.50;2.00;;;;;8.70;69.16;102100.66;5059162;28;45283;-67
2022/03/14 05:38:12;;;;;;;;;7.75;2.50;;;;;8.69;69.12;102091.06;5060818;28;45256;-68
2022/03/14 05:40:37;;;;;;;;;18.00;13.25;;;;;8.65;70.48;102100.78;5059544;28;45521;-67
2022/03/14 05:43:07;;;;;;;;;9.00;3.75;;;;;8.63;69.81;102099.13;5058930;28;45319;-67
2022/03/14 05:45:34;;;;;;;;;5.00;3.00;;;;;8.61;69.48;102099.16;5060634;28;45253;-68
2022/03/14 05:47:59;;;;;;;;;10.00;3.75;;;;;8.59;70.00;102100.94;5063489;28;45319;-68
2022/03/14 05:50:25;;;;;;;;;4.50;3.50;;;;;8.59;69.53;102110.59;5052087;28;45536;-67
2022/03/14 05:52:52;;;;;;;;;6.50;4.00;;;;;8.57;69.43;102109.78;5063639;28;45233;-67
2022/03/14 05:55:18;;;;;;;;;10.75;3.50;;;;;8.56;69.57;102108.06;5062688;28;45324;-67
2022/03/14 05:57:44;;;;;;;;;7.25;6.25;;;;;8.54;69.48;102109.88;5061550;28;45294;-66
2022/03/14 06:00:12;;;;;;;;;6.75;4.50;;;;;8.54;69.62;102130.91;5059022;28;45652;-66
2022/03/14 06:02:38;;;;;;;;;10.25;3.50;;;;;8.53;69.59;102123.91;5058032;28;45511;-66
2022/03/14 06:05:04;;;;;;;;;7.00;3.50;;;;;8.52;69.93;102132.69;5053913;28;45254;-66
2022/03/14 06:07:30;;;;;;;;;3.00;3.00;;;;;8.51;69.93;102133.59;5063829;28;45277;-66
2022/03/14 06:09:56;;;;;;;;;10.00;5.00;;;;;8.51;69.68;102138.84;5063743;28;45433;-67
2022/03/14 06:12:26;;;;;;;;;9.25;3.00;;;;;8.50;70.07;102156.38;5061519;28;45415;-67
2022/03/14 06:14:53;;;;;;;;;9.50;4.25;;;;;8.49;69.58;102154.66;5063327;28;45351;-67
2022/03/14 06:17:20;;;;;;;;;8.75;6.00;;;;;8.50;69.61;102150.25;5061368;28;45526;-66
2022/03/14 06:19:45;;;;;;;;;7.50;2.75;;;;;8.52;69.57;102156.31;5063560;28;45227;-67
2022/03/14 06:22:11;;;;;;;;;5.50;4.00;;;;;8.53;70.03;102152.78;5068218;28;45907;-66
2022/03/14 06:24:36;;;;;;;;;3.00;3.00;;;;;8.55;69.76;102162.38;5065908;28;45209;-66
2022/03/14 06:27:03;;;;;;;;;7.75;5.00;;;;;8.56;69.67;102158.84;5058933;28;45452;-67
2022/03/14 06:29:28;;;;;;;;;6.00;3.50;;;;;8.58;69.75;102156.16;5053956;28;45316;-67
2022/03/14 06:31:54;;;;;;;;;7.00;4.50;;;;;8.56;69.81;102164.09;5046057;28;45446;-67
2022/03/14 06:34:20;;;;;;;;;7.00;7.00;;;;;8.57;69.61;102172.81;5026962;28;46486;-67
2022/03/14 06:36:45;;;;;;;;;20.00;14.25;;;;;8.58;69.90;102177.16;5050998;28;45553;-67
2022/03/14 06:39:11;;;;;;;;;9.50;8.00;;;;;8.59;69.56;102171.00;5053665;28;45455;-64
2022/03/14 06:41:38;;;;;;;;;18.25;13.75;;;;;8.60;69.74;102184.09;5052297;28;45348;-63
2022/03/14 06:44:04;;;;;;;;;9.75;7.50;;;;;8.65;69.78;102203.22;5051670;28;45418;-66
2022/03/14 06:46:29;;;;;;;;;11.50;7.50;;;;;8.71;69.83;102206.59;5053360;28;45240;-68
2022/03/14 06:48:55;;;;;;;;;12.25;6.75;;;;;8.76;69.52;102202.06;5047843;28;45135;-63
2022/03/14 06:51:21;;;;;;;;;8.00;6.00;;;;;8.82;69.55;102205.38;5042680;28;46039;-68
2022/03/14 06:53:48;;;;;;;;;4.25;4.00;;;;;8.92;69.49;102214.72;5042946;28;45430;-68
2022/03/14 06:56:15;;;;;;;;;7.25;6.75;;;;;9.00;69.36;102221.50;5042850;28;45387;-72
2022/03/14 06:58:41;;;;;;;;;7.75;6.75;;;;;9.05;69.21;102220.47;5042919;28;45512;-72
2022/03/14 07:01:06;;;;;;;;;6.25;6.25;;;;;9.12;69.30;102218.53;5043738;28;45351;-68
2022/03/14 07:03:32;;;;;;;;;12.50;7.25;;;;;9.20;69.00;102227.06;5045642;28;45310;-71
2022/03/14 07:05:57;;;;;;;;;8.50;8.00;;;;;9.29;69.06;102229.41;5042807;28;45222;-69
2022/03/14 07:08:23;;;;;;;;;7.00;5.00;;;;;9.39;68.80;102227.34;5042747;28;45444;-70
2022/03/14 07:10:48;;;;;;;;;9.00;8.00;;;;;9.48;69.00;102242.88;5051589;28;46169;-71
2022/03/14 07:13:14;;;;;;;;;8.75;7.75;;;;;9.53;68.29;102251.47;5042219;28;45257;-71
2022/03/14 07:15:39;;;;;;;;;8.75;6.25;;;;;9.62;68.38;102250.31;5024175;28;45313;-71
2022/03/14 07:18:05;;;;;;;;;13.50;7.00;;;;;9.69;68.19;102257.97;5042100;28;45427;-69
2022/03/14 07:20:30;;;;;;;;;9.25;7.25;;;;;9.75;67.73;102268.31;5042079;28;45916;-71
2022/03/14 07:23:05;;;;;;;;;11.25;8.50;;;;;9.77;68.06;102276.16;5055040;28;45566;-70
2022/03/14 07:25:32;;;;;;;;;8.00;6.00;;;;;9.82;68.04;102271.63;5044829;28;45376;-63
2022/03/14 07:28:01;;;;;;;;;8.50;4.00;;;;;9.87;67.64;102272.31;5062934;28;45458;-69
2022/03/14 07:30:27;;;;;;;;;7.00;4.00;;;;;9.92;67.65;102275.69;5046063;28;45512;-70
2022/03/14 07:32:53;;;;;;;;;6.50;6.00;;;;;9.96;67.56;102272.06;5042066;28;45350;-70
2022/03/14 07:35:20;;;;;;;;;11.25;3.25;;;;;9.99;67.37;102287.75;5056370;28;45497;-69
2022/03/14 07:37:45;;;;;;;;;6.25;6.00;;;;;10.05;67.08;102298.09;5042420;28;45321;-70
2022/03/14 07:40:12;;;;;;;;;8.50;7.00;;;;;10.03;67.63;102296.38;5049854;28;45467;-70
2022/03/14 07:42:39;;;;;;;;;13.75;6.00;;;;;10.07;67.61;102301.53;5042018;28;45386;-70
2022/03/14 07:45:06;;;;;;;;;10.50;9.00;;;;;10.09;67.09;102298.84;5042683;28;45342;-69
2022/03/14 07:47:31;;;;;;;;;7.75;7.75;;;;;10.07;67.51;102304.16;5051265;28;45315;-69
2022/03/14 07:49:57;;;;;;;;;10.25;6.00;;;;;10.01;66.95;102312.25;5041700;28;45286;-70
2022/03/14 07:52:23;;;;;;;;;7.00;6.25;;;;;9.98;67.19;102320.25;5041826;28;45294;-71
2022/03/14 07:54:48;;;;;;;;;10.75;7.00;;;;;9.93;67.52;102331.81;5041924;28;45289;-71
2022/03/14 07:57:14;;;;;;;;;9.75;7.00;;;;;9.94;67.17;102334.41;5042372;28;45479;-69
2022/03/14 07:59:39;;;;;;;;;9.75;5.50;;;;;9.95;67.41;102341.41;5041609;28;45476;-70
2022/03/14 08:02:06;;;;;;;;;13.75;8.00;;;;;10.00;67.40;102341.25;5041908;28;45249;-69
2022/03/14 08:04:32;;;;;;;;;8.25;6.75;;;;;10.08;66.56;102345.38;5041412;28;45481;-69
2022/03/14 08:06:58;;;;;;;;;11.00;7.25;;;;;10.19;66.70;102347.69;5044818;28;45532;-69
2022/03/14 08:09:23;;;;;;;;;9.00;7.50;;;;;10.30;66.71;102344.72;5042764;28;45537;-70
2022/03/14 08:11:49;;;;;;;;;8.75;7.00;;;;;10.39;66.28;102343.56;5053426;28;45428;-70
2022/03/14 08:14:15;;;;;;;;;10.00;9.00;;;;;10.45;65.74;102344.22;5044292;28;45424;-70
2022/03/14 08:16:40;;;;;;;;;16.75;9.00;;;;;10.51;66.25;102338.75;5033680;28;45420;-70
2022/03/14 08:19:06;;;;;;;;;12.50;8.00;;;;;10.56;65.92;102343.84;5040906;28;45313;-70
2022/03/14 08:21:33;;;;;;;;;9.50;8.75;;;;;10.63;65.97;102350.66;5045255;28;45448;-70
2022/03/14 08:23:58;;;;;;;;;11.50;8.50;;;;;10.71;65.63;102360.94;5043475;28;45539;-70
2022/03/14 08:26:24;;;;;;;;;13.75;8.00;;;;;10.78;65.72;102365.94;5051331;28;45359;-70
2022/03/14 08:28:50;;;;;;;;;13.75;10.50;;;;;10.85;65.40;102367.47;5059180;28;45329;-71
2022/03/14 08:31:21;;;;;;;;;9.75;8.00;;;;;10.91;65.44;102369.03;5055057;28;45150;-70
2022/03/14 08:33:46;;;;;;;;;8.25;7.25;;;;;11.00;65.50;102370.47;5049318;28;45515;-70
2022/03/14 08:36:12;;;;;;;;;14.00;9.00;;;;;11.05;64.65;102372.03;5052576;28;45178;-72
2022/03/14 08:38:38;;;;;;;;;10.75;8.75;;;;;11.11;64.78;102370.94;5041466;28;45242;-71
2022/03/14 08:41:04;;;;;;;;;9.75;7.00;;;;;11.18;64.94;102378.59;5046982;28;44732;-69
2022/03/14 08:43:29;;;;;;;;;13.50;8.50;;;;;11.26;64.18;102382.75;5062936;28;45130;-69
2022/03/14 08:45:55;;;;;;;;;8.25;8.25;;;;;11.34;64.71;102378.06;5066671;28;44976;-70
2022/03/14 08:48:21;;;;;;;;;6.50;4.00;;;;;11.41;64.31;102382.19;5062040;28;45517;-69
2022/03/14 08:50:47;;;;;;;;;13.25;8.25;;;;;11.43;64.11;102380.34;5050799;28;45362;-69
2022/03/14 08:53:12;;;;;;;;;11.75;10.00;;;;;11.47;64.06;102392.53;5060960;28;45516;-69
2022/03/14 08:55:38;;;;;;;;;10.25;10.00;;;;;11.51;64.00;102391.47;5053350;28;45408;-69
2022/03/14 08:58:03;;;;;;;;;18.25;10.25;;;;;11.53;63.64;102394.91;5055455;28;46231;-69
2022/03/14 09:00:30;;;;;;;;;10.00;8.75;;;;;11.62;63.84;102404.31;5048081;28;45472;-69
2022/03/14 09:02:56;;;;;;;;;19.50;9.50;;;;;11.67;63.95;102405.84;5051989;28;45403;-70
2022/03/14 09:05:22;;;;;;;;;13.00;10.00;;;;;11.69;63.18;102406.66;5054518;28;45320;-69
2022/03/14 09:07:48;;;;;;;;;16.00;9.00;;;;;11.66;63.29;102401.47;5055144;28;45393;-69
2022/03/14 09:10:15;;;;;;;;;13.75;9.25;;;;;11.69;62.82;102406.66;5040761;28;45261;-69
2022/03/14 09:12:42;;;;;;;;;9.75;9.75;;;;;11.76;63.24;102401.97;5040570;28;45258;-70
2022/03/14 09:15:09;;;;;;;;;12.50;8.75;;;;;11.84;63.38;102397.31;5041056;28;45522;-69
2022/03/14 09:17:44;;;;;;;;;15.25;11.00;;;;;11.93;62.73;102412.81;5057024;28;45309;-69
2022/03/14 09:20:12;;;;;;;;;15.00;11.25;;;;;11.99;62.62;102412.56;5053447;28;45342;-69
2022/03/14 09:22:38;;;;;;;;;15.50;10.00;;;;;12.02;62.89;102403.69;5048382;28;45226;-70
2022/03/14 09:25:04;;;;;;;;;14.50;10.00;;;;;12.06;62.62;102407.06;5060728;28;45348;-69
2022/03/14 09:27:30;;;;;;;;;13.75;11.25;;;;;12.13;62.41;102419.09;5059248;28;46151;-70
2022/03/14 09:29:55;;;;;;;;;15.50;10.75;;;;;12.16;62.10;102416.34;5045776;28;45796;-70
2022/03/14 09:32:21;;;;;;;;;14.00;11.75;;;;;12.21;62.04;102422.31;5040732;28;45319;-70
2022/03/14 09:34:46;;;;;;;;;10.75;8.00;;;;;12.22;61.72;102429.31;5048835;28;45627;-70
2022/03/14 09:37:12;;;;;;;;;11.75;9.75;;;;;12.27;62.27;102428.22;5057187;28;46895;-69
2022/03/14 09:39:38;;;;;;;;;8.00;7.00;;;;;12.31;61.88;102428.94;5045177;28;45546;-67
2022/03/14 09:42:05;;;;;;;;;18.00;12.25;;;;;12.33;61.69;102424.47;5046671;28;45436;-72
2022/03/14 09:44:32;;;;;;;;;9.00;8.25;;;;;12.34;61.48;102422.69;5046010;28;46551;-66
2022/03/14 09:47:02;;;;;;;;;15.25;10.50;;;;;12.38;61.78;102417.22;5045626;28;46336;-62
2022/03/14 09:49:31;;;;;;;;;11.50;10.00;;;;;12.44;61.86;102419.63;5041711;28;45519;-64
2022/03/14 09:51:58;;;;;;;;;13.00;10.25;;;;;12.52;61.45;102427.25;5046582;28;45726;-66
2022/03/14 09:54:24;;;;;;;;;14.25;9.50;;;;;12.60;61.44;102426.94;5047630;28;45290;-64
2022/03/14 09:56:49;;;;;;;;;18.25;13.50;;;;;12.65;61.25;102423.19;5049766;28;45245;-64
2022/03/14 09:59:15;;;;;;;;;15.50;12.00;;;;;12.69;60.94;102423.91;5046535;28;45179;-65
2022/03/14 10:01:41;;;;;;;;;13.00;11.25;;;;;12.73;60.79;102430.81;5040193;28;45226;-71
2022/03/14 10:04:08;;;;;;;;;14.00;11.00;;;;;12.81;61.08;102432.19;5042793;28;45422;-68
2022/03/14 10:06:35;;;;;;;;;12.50;11.00;;;;;12.87;60.75;102433.72;5049902;28;45479;-68
2022/03/14 10:09:01;;;;;;;;;9.50;9.25;;;;;12.93;60.88;102432.59;5039454;28;45378;-69
2022/03/14 10:11:28;;;;;;;;;14.00;12.25;;;;;13.00;60.57;102431.41;5040112;28;45341;-69
2022/03/14 10:13:53;;;;;;;;;15.75;12.50;;;;;13.05;60.50;102434.75;5039837;28;45463;-69
2022/03/14 10:16:20;;;;;;;;;16.75;10.50;;;;;13.11;60.14;102437.09;5039963;28;45230;-70
2022/03/14 10:19:01;;;;;;;;;17.75;11.75;;;;;13.12;60.05;102426.47;5039199;28;45443;-66
2022/03/14 10:21:37;;;;;;;;;15.50;11.50;;;;;13.17;60.08;102423.63;5039884;28;45352;-65
2022/03/14 10:24:11;;;;;;;;;21.25;13.25;;;;;13.21;59.88;102425.25;5060265;28;45497;-68
2022/03/14 10:26:41;;;;;;;;;13.00;13.00;;;;;13.25;60.06;102429.47;5058285;28;45380;-66
2022/03/14 10:29:08;;;;;;;;;14.50;10.50;;;;;13.27;59.69;102435.59;5054301;28;45428;-65
2022/03/14 10:31:36;;;;;;;;;19.50;13.00;;;;;13.32;60.01;102449.44;5029692;28;45598;-67
2022/03/14 10:34:13;;;;;;;;;18.25;13.00;;;;;13.40;59.76;102449.13;5054963;28;45487;-68
2022/03/14 10:36:45;;;;;;;;;13.75;12.75;;;;;13.38;59.13;102448.34;5043148;28;46020;-65
2022/03/14 10:39:31;;;;;;;;;12.75;11.75;;;;;13.35;59.51;102451.09;5046967;28;45317;-65
2022/03/14 10:42:07;;;;;;;;;17.50;11.50;;;;;13.36;59.29;102445.75;5058578;28;45368;-64
2022/03/14 10:44:33;;;;;;;;;17.50;12.50;;;;;13.38;59.63;102443.91;5043205;28;45506;-67
2022/03/14 10:47:00;;;;;;;;;10.25;10.00;;;;;13.43;59.24;102441.06;5042275;28;45566;-65
2022/03/14 10:49:31;;;;;;;;;61.75;24.50;;;;;13.50;62.04;102446.91;5042185;28;45290;-66
2022/03/14 10:51:59;;;;;;;;;15.75;11.50;;;;;13.61;59.40;102439.38;5043218;28;45349;-60
2022/03/14 10:54:25;;;;;;;;;47.75;19.25;;;;;13.70;60.06;102438.97;5042342;28;45492;-58
2022/03/14 10:57:04;;;;;;;;;17.00;9.25;;;;;13.88;60.29;102445.19;5042853;28;46300;-57
2022/03/14 10:59:49;;;;;;;;;12.75;7.25;;;;;14.05;58.94;102450.56;5042035;28;45303;-59
2022/03/14 11:02:22;;;;;;;;;13.00;10.50;;;;;14.10;58.71;102440.63;5042789;28;45336;-59
2022/03/14 11:04:53;;;;;;;;;14.00;9.75;;;;;14.21;59.14;102448.06;5044381;28;45478;-61
2022/03/14 11:07:23;;;;;;;;;9.25;5.50;;;;;14.28;58.66;102448.63;5042546;28;46196;-58
2022/03/14 11:09:51;;;;;;;;;11.00;5.25;;;;;14.27;56.88;102450.44;5042219;28;45367;-59
2022/03/14 11:12:22;;;;;;;;;19.25;6.50;;;;;14.33;61.11;102455.44;5042431;28;45320;-58
2022/03/14 11:14:55;;;;;;;;;12.50;6.00;;;;;14.56;57.39;102451.72;5042836;28;45491;-58
2022/03/14 11:17:23;;;;;;;;;18.50;8.50;;;;;14.65;58.23;102461.88;5042295;28;46317;-58
2022/03/14 11:19:50;;;;;;;;;6.00;6.00;;;;;14.72;57.56;102450.03;5049202;28;45481;-59
2022/03/14 11:22:16;;;;;;;;;9.25;6.50;;;;;14.75;55.94;102444.56;5042360;28;45380;-58